createdAt,value
2022-10-06T00:01:32.203Z,12.82
2022-10-06T00:05:33.537Z,12.75
2022-10-06T00:09:34.841Z,12.75
2022-10-06T00:13:36.743Z,12.71
2022-10-06T00:17:38.973Z,12.75
2022-10-06T00:21:40.265Z,12.81
2022-10-06T00:25:42.299Z,12.88
2022-10-06T00:29:43.572Z,12.96
2022-10-06T00:33:45.790Z,13.04
2022-10-06T00:37:47.043Z,13.17
2022-10-06T00:41:48.380Z,13.46
2022-10-06T00:45:49.729Z,13.77
2022-10-06T00:49:53.556Z,13.99
2022-10-06T00:53:54.855Z,14.19
2022-10-06T00:57:56.219Z,14.33
2022-10-06T01:02:01.553Z,14.43
2022-10-06T01:06:04.169Z,14.52
2022-10-06T01:10:05.825Z,14.57
2022-10-06T01:14:07.635Z,14.61
2022-10-06T01:18:13.210Z,14.60
2022-10-06T01:22:16.176Z,14.59
2022-10-06T01:26:18.472Z,14.56
2022-10-06T01:30:23.725Z,14.51
2022-10-06T01:34:25.033Z,14.46
2022-10-06T01:38:26.646Z,14.43
2022-10-06T01:42:31.772Z,14.38
2022-10-06T01:46:33.240Z,14.34
2022-10-06T01:50:34.513Z,14.29
2022-10-06T01:54:35.906Z,14.28
2022-10-06T01:58:37.162Z,14.26
2022-10-06T02:02:38.585Z,14.23
2022-10-06T02:06:39.907Z,14.18
2022-10-06T02:10:41.203Z,14.15
2022-10-06T02:14:42.601Z,14.11
2022-10-06T02:18:44.462Z,14.10
2022-10-06T02:22:45.729Z,14.01
2022-10-06T02:26:47.022Z,13.97
2022-10-06T02:30:48.449Z,13.93
2022-10-06T02:34:50.383Z,13.92
2022-10-06T02:38:51.637Z,13.90
2022-10-06T02:42:53.200Z,13.88
2022-10-06T02:46:54.678Z,13.80
2022-10-06T02:50:56.034Z,13.78
2022-10-06T02:54:57.276Z,13.75
2022-10-06T02:58:58.990Z,13.72
2022-10-06T03:03:00.262Z,13.71
2022-10-06T03:07:01.545Z,13.68
2022-10-06T03:11:03.680Z,13.67
2022-10-06T03:15:05.383Z,13.66
2022-10-06T03:19:08.028Z,13.64
2022-10-06T03:23:13.425Z,13.62
2022-10-06T03:27:15.514Z,13.58
2022-10-06T03:31:17.866Z,13.53
2022-10-06T03:35:19.208Z,13.53
2022-10-06T03:39:20.693Z,13.51
2022-10-06T03:43:22.385Z,13.52
2022-10-06T03:47:23.853Z,13.48
2022-10-06T03:51:29.708Z,13.48
2022-10-06T03:55:31.026Z,13.47
2022-10-06T03:59:34.157Z,13.47
2022-10-06T04:03:35.748Z,13.46
2022-10-06T04:07:36.976Z,13.44
2022-10-06T04:11:39.245Z,13.40
2022-10-06T04:15:40.472Z,13.43
2022-10-06T04:19:41.989Z,13.41
2022-10-06T04:23:43.431Z,13.40
2022-10-06T04:27:45.099Z,13.39
2022-10-06T04:31:46.808Z,13.37
2022-10-06T04:35:48.125Z,13.35
2022-10-06T04:39:49.387Z,13.32
2022-10-06T04:43:51.043Z,13.32
2022-10-06T04:47:52.284Z,13.33
2022-10-06T04:51:53.632Z,13.29
2022-10-06T04:56:11.220Z,13.26
2022-10-06T05:00:25.365Z,13.26
2022-10-06T05:04:26.676Z,13.27
2022-10-06T05:08:28.442Z,13.28
2022-10-06T05:12:30.960Z,13.28
2022-10-06T05:16:33.000Z,13.24
2022-10-06T05:20:34.371Z,13.19
2022-10-06T05:24:35.665Z,13.14
2022-10-06T05:28:37.341Z,13.00
2022-10-06T05:32:38.679Z,12.90
2022-10-06T05:36:40.058Z,12.82
2022-10-06T05:40:41.443Z,12.73
2022-10-06T05:44:42.746Z,12.65
2022-10-06T05:48:50.936Z,12.53
2022-10-06T05:52:54.197Z,12.43
2022-10-06T05:56:55.714Z,12.31
2022-10-06T06:01:06.104Z,12.25
2022-10-06T06:05:07.445Z,12.15
2022-10-06T06:09:10.038Z,12.06
2022-10-06T06:13:11.917Z,12.01
2022-10-06T06:17:13.148Z,12.01
2022-10-06T06:21:14.421Z,11.98
2022-10-06T06:25:15.738Z,11.93
2022-10-06T06:29:16.998Z,11.94
2022-10-06T06:33:18.266Z,11.96
2022-10-06T06:37:19.591Z,12.09
2022-10-06T06:41:25.781Z,12.25
2022-10-06T06:45:27.184Z,12.37
2022-10-06T06:49:28.459Z,12.50
2022-10-06T06:53:30.094Z,12.67
2022-10-06T06:57:31.424Z,12.99
2022-10-06T07:01:32.741Z,13.39
2022-10-06T07:05:34.069Z,13.74
2022-10-06T07:09:35.760Z,14.14
2022-10-06T07:13:37.009Z,14.57
2022-10-06T07:17:57.238Z,15.00
2022-10-06T07:22:18.508Z,15.32
2022-10-06T07:26:19.909Z,15.82
2022-10-06T07:30:25.541Z,16.18
2022-10-06T07:34:30.332Z,16.29
2022-10-06T07:38:32.259Z,16.26
2022-10-06T07:42:48.145Z,16.27
2022-10-06T07:46:49.441Z,16.14
2022-10-06T07:50:52.589Z,16.19
2022-10-06T07:54:54.065Z,16.10
2022-10-06T07:58:56.164Z,16.14
2022-10-06T08:02:57.472Z,16.20
2022-10-06T08:06:59.724Z,16.12
2022-10-06T08:11:01.928Z,16.08
2022-10-06T08:15:07.632Z,16.56
2022-10-06T08:19:09.288Z,17.15
2022-10-06T08:23:14.476Z,17.33
2022-10-06T08:27:15.914Z,17.34
2022-10-06T08:31:18.677Z,17.24
2022-10-06T08:35:21.299Z,17.07
2022-10-06T08:39:22.706Z,16.90
2022-10-06T08:43:25.973Z,16.88
2022-10-06T08:47:28.991Z,17.01
2022-10-06T08:51:44.329Z,17.08
2022-10-06T08:55:48.013Z,17.04
2022-10-06T08:59:53.307Z,17.13
2022-10-06T09:03:57.252Z,17.39
2022-10-06T09:08:21.769Z,17.72
2022-10-06T09:12:45.832Z,17.99
2022-10-06T09:16:50.219Z,18.10
2022-10-06T09:21:12.009Z,18.06
2022-10-06T09:25:26.530Z,18.06
2022-10-06T09:29:31.198Z,17.95
2022-10-06T09:33:37.232Z,17.96
2022-10-06T09:37:57.217Z,17.97
2022-10-06T09:42:00.561Z,17.91
2022-10-06T09:46:20.929Z,17.94
2022-10-06T09:50:23.813Z,17.92
2022-10-06T09:54:25.281Z,17.85
2022-10-06T09:58:34.483Z,17.87
2022-10-06T10:02:37.171Z,17.80
2022-10-06T10:06:40.061Z,17.87
2022-10-06T10:10:41.460Z,18.07
2022-10-06T10:14:42.737Z,17.99
2022-10-06T10:18:48.293Z,18.20
2022-10-06T10:22:49.890Z,18.36
2022-10-06T10:27:14.308Z,18.27
2022-10-06T10:31:20.211Z,18.31
2022-10-06T10:35:27.572Z,18.35
2022-10-06T10:39:38.084Z,18.39
2022-10-06T10:43:40.141Z,18.41
2022-10-06T10:47:45.440Z,18.49
2022-10-06T10:51:53.024Z,18.52
2022-10-06T10:55:54.328Z,18.58
2022-10-06T11:00:01.469Z,18.45
2022-10-06T11:04:03.111Z,18.29
2022-10-06T11:08:13.235Z,18.33
2022-10-06T11:12:14.438Z,18.21
2022-10-06T11:16:24.623Z,18.30
2022-10-06T11:20:37.969Z,18.43
2022-10-06T11:24:48.308Z,18.50
2022-10-06T11:28:56.524Z,18.45
2022-10-06T11:33:07.021Z,18.46
2022-10-06T11:37:37.642Z,18.49
2022-10-06T11:41:41.477Z,18.42
2022-10-06T11:45:45.913Z,18.40
2022-10-06T11:49:49.383Z,18.39
2022-10-06T11:53:51.260Z,18.46
2022-10-06T11:58:08.650Z,18.46
2022-10-06T12:02:38.066Z,18.51
2022-10-06T12:06:42.568Z,18.53
2022-10-06T12:10:48.208Z,18.64
2022-10-06T12:19:20.860Z,18.70
2022-10-06T12:23:42.073Z,18.71
2022-10-06T12:27:52.494Z,18.67
2022-10-06T12:32:13.043Z,18.56
2022-10-06T12:36:19.129Z,18.68
2022-10-06T12:40:42.983Z,18.76
2022-10-06T12:44:51.632Z,18.75
2022-10-06T12:49:03.172Z,18.72
2022-10-06T12:53:11.725Z,18.66
2022-10-06T12:57:18.555Z,18.78
2022-10-06T13:01:21.938Z,18.68
2022-10-06T13:05:23.607Z,18.72
2022-10-06T13:09:25.038Z,18.76
2022-10-06T13:13:26.416Z,18.78
2022-10-06T13:17:27.712Z,18.75
2022-10-06T13:21:30.139Z,18.79
2022-10-06T13:25:40.445Z,18.84
2022-10-06T13:29:41.744Z,18.77
2022-10-06T13:33:44.233Z,18.78
2022-10-06T13:37:45.789Z,18.85
2022-10-06T13:41:52.221Z,18.86
2022-10-06T13:45:54.321Z,18.86
2022-10-06T13:50:19.733Z,18.87
2022-10-06T13:54:46.077Z,18.94
2022-10-06T13:58:47.878Z,18.91
2022-10-06T14:02:51.246Z,18.93
2022-10-06T14:06:54.145Z,18.88
2022-10-06T14:10:56.899Z,18.85
2022-10-06T14:14:59.045Z,18.82
2022-10-06T14:19:03.797Z,18.81
2022-10-06T14:23:23.829Z,18.70
2022-10-06T14:27:25.104Z,18.64
2022-10-06T14:31:28.108Z,18.62
2022-10-06T14:35:29.474Z,18.56
2022-10-06T14:39:30.757Z,18.51
2022-10-06T14:43:32.933Z,18.53
2022-10-06T14:47:34.321Z,18.56
2022-10-06T14:51:37.185Z,18.54
2022-10-06T14:55:38.639Z,18.55
2022-10-06T14:59:39.981Z,18.54
2022-10-06T15:03:42.666Z,18.53
2022-10-06T15:08:05.806Z,18.47
2022-10-06T15:12:07.081Z,18.38
2022-10-06T15:16:08.700Z,18.39
2022-10-06T15:20:12.620Z,18.49
2022-10-06T15:24:15.881Z,18.53
2022-10-06T15:28:36.215Z,18.61
2022-10-06T15:32:37.540Z,18.74
2022-10-06T15:36:39.697Z,18.92
2022-10-06T15:40:40.955Z,19.17
2022-10-06T15:44:42.172Z,19.35
2022-10-06T15:48:44.649Z,19.54
2022-10-06T15:52:46.112Z,19.82
2022-10-06T15:56:48.389Z,20.29
2022-10-06T16:00:49.801Z,18.99
2022-10-06T16:05:17.553Z,17.97
2022-10-06T16:09:18.962Z,17.21
2022-10-06T16:13:20.360Z,16.50
2022-10-06T16:17:21.609Z,16.06
2022-10-06T16:21:23.420Z,15.68
2022-10-06T16:25:24.647Z,15.26
2022-10-06T16:29:26.472Z,15.01
2022-10-06T16:33:27.694Z,14.78
2022-10-06T16:37:28.973Z,14.55
2022-10-06T16:41:30.264Z,14.36
2022-10-06T16:45:31.600Z,14.11
2022-10-06T16:49:32.832Z,13.93
2022-10-06T16:53:38.460Z,13.79
2022-10-06T16:57:39.729Z,13.62
2022-10-06T17:01:41.368Z,13.41
2022-10-06T17:05:42.601Z,13.16
2022-10-06T17:09:55.981Z,12.96
2022-10-06T17:14:05.723Z,12.76
2022-10-06T17:18:07.369Z,12.63
2022-10-06T17:22:08.656Z,12.47
2022-10-06T17:26:16.668Z,12.30
2022-10-06T17:30:17.923Z,12.15
2022-10-06T17:34:21.527Z,12.00
2022-10-06T17:38:26.421Z,11.87
2022-10-06T17:42:27.729Z,11.76
2022-10-06T17:46:32.330Z,11.64
2022-10-06T17:50:33.747Z,11.52
2022-10-06T17:54:35.008Z,11.38
2022-10-06T17:58:37.044Z,11.27
2022-10-06T18:02:40.436Z,11.16
2022-10-06T18:06:43.322Z,11.04
2022-10-06T18:11:06.392Z,10.91
2022-10-06T18:15:10.021Z,10.83
2022-10-06T18:19:13.380Z,10.71
2022-10-06T18:23:15.769Z,10.59
2022-10-06T18:27:17.140Z,10.46
2022-10-06T18:31:18.965Z,10.39
2022-10-06T18:39:44.920Z,10.24
2022-10-06T18:43:46.417Z,10.17
2022-10-06T18:48:06.591Z,10.11
2022-10-06T18:52:08.442Z,9.96
2022-10-06T18:56:10.735Z,9.89
2022-10-06T19:00:14.227Z,9.80
2022-10-06T19:04:17.575Z,9.73
2022-10-06T19:08:19.854Z,9.66
2022-10-06T19:12:22.100Z,9.62
2022-10-06T19:16:23.729Z,9.55
2022-10-06T19:20:25.166Z,9.48
2022-10-06T19:24:28.588Z,9.41
2022-10-06T19:28:31.470Z,9.36
2022-10-06T19:32:32.966Z,9.32
2022-10-06T19:36:36.094Z,9.26
2022-10-06T19:40:37.448Z,9.19
2022-10-06T19:44:42.933Z,9.12
2022-10-06T19:48:44.536Z,9.04
2022-10-06T19:52:45.845Z,8.95
2022-10-06T19:56:47.387Z,8.90
2022-10-06T20:00:48.693Z,8.81
2022-10-06T20:04:50.534Z,8.76
2022-10-06T20:08:52.452Z,8.71
2022-10-06T20:12:53.715Z,8.65
2022-10-06T20:16:55.476Z,8.62
2022-10-06T20:20:58.620Z,8.56
2022-10-06T20:25:02.168Z,8.50
2022-10-06T20:29:05.873Z,8.42
2022-10-06T20:33:07.461Z,8.38
2022-10-06T20:37:08.733Z,8.29
2022-10-06T20:41:10.015Z,8.19
2022-10-06T20:45:11.260Z,8.15
2022-10-06T20:49:22.012Z,8.11
2022-10-06T20:53:26.956Z,8.07
2022-10-06T20:57:33.508Z,8.01
2022-10-06T21:01:36.374Z,7.95
2022-10-06T21:05:37.877Z,7.86
2022-10-06T21:09:39.125Z,7.81
2022-10-06T21:13:40.864Z,7.80
2022-10-06T21:17:46.446Z,7.76
2022-10-06T21:21:53.221Z,7.71
2022-10-06T21:25:55.731Z,7.64
2022-10-06T21:29:57.012Z,7.56
2022-10-06T21:34:00.308Z,7.55
2022-10-06T21:38:01.547Z,7.48
2022-10-06T21:42:03.972Z,7.38
2022-10-06T21:46:27.447Z,7.35
2022-10-06T21:50:27.326Z,7.29
2022-10-06T21:54:28.673Z,7.24
2022-10-06T21:58:29.889Z,7.17
2022-10-06T22:02:31.131Z,7.10
2022-10-06T22:06:33.392Z,7.09
2022-10-06T22:10:34.644Z,7.03
2022-10-06T22:14:35.877Z,6.96
2022-10-06T22:18:38.327Z,6.93
2022-10-06T22:22:39.539Z,6.91
2022-10-06T22:26:41.473Z,6.81
2022-10-06T22:30:42.682Z,6.80
2022-10-06T22:34:43.931Z,6.74
2022-10-06T22:38:45.437Z,6.69
2022-10-06T22:42:46.703Z,6.62
2022-10-06T22:46:47.989Z,6.57
2022-10-06T22:50:49.828Z,6.49
2022-10-06T22:54:51.033Z,6.44
2022-10-06T22:58:52.312Z,6.36
2022-10-06T23:02:54.288Z,6.35
2022-10-06T23:06:55.658Z,6.27
2022-10-06T23:11:02.965Z,6.24
2022-10-06T23:15:04.505Z,6.15
2022-10-06T23:19:05.750Z,6.11
2022-10-06T23:23:07.768Z,6.11
2022-10-06T23:27:09.104Z,6.12
2022-10-06T23:31:10.906Z,6.10
2022-10-06T23:35:12.240Z,6.01
2022-10-06T23:39:13.805Z,5.98
2022-10-06T23:43:15.008Z,5.96
2022-10-06T23:47:16.234Z,5.87
2022-10-06T23:51:17.722Z,5.86
2022-10-06T23:55:18.965Z,5.79
2022-10-06T23:59:20.980Z,5.69
